Time;durP1;ratioP1;P1;durP2;ratioP2;P2;SDS_P1;SDS_P2;PMS_P1;PMS_P2;Temp;Humidity;BMP_temperature;BMP_pressure;BME280_temperature;BME280_humidity;BME280_pressure;Samples;Min_cycle;Max_cycle;Signal;HPM_P1;HPM_P2
2022/08/02 00:00:56;;;;;;;12.65;2.55;;;16.90;97.70;;;;;;5031764;28;20036;-75
2022/08/02 00:03:23;;;;;;;6.22;2.05;;;16.90;97.80;;;;;;5031476;28;20022;-73
2022/08/02 00:05:48;;;;;;;5.50;2.08;;;16.80;97.80;;;;;;5030338;28;20076;-73
2022/08/02 00:08:14;;;;;;;5.78;1.92;;;16.80;97.80;;;;;;5031305;28;20476;-74
2022/08/02 00:10:40;;;;;;;7.47;2.20;;;16.80;97.90;;;;;;5031825;28;20108;-73
2022/08/02 00:13:05;;;;;;;9.70;2.45;;;16.70;98.00;;;;;;5031321;28;20037;-74
2022/08/02 00:15:31;;;;;;;14.10;3.03;;;16.70;98.10;;;;;;5030088;28;20037;-74
2022/08/02 00:17:57;;;;;;;8.45;2.30;;;16.60;98.20;;;;;;5030926;28;20041;-74
2022/08/02 00:20:22;;;;;;;10.80;2.22;;;16.70;98.10;;;;;;5031057;28;20476;-74
2022/08/02 00:22:48;;;;;;;8.55;2.25;;;16.60;98.20;;;;;;5031394;28;20017;-74
2022/08/02 00:25:14;;;;;;;9.13;2.10;;;16.60;98.10;;;;;;5029933;28;20101;-74
2022/08/02 00:27:39;;;;;;;5.10;1.63;;;16.60;98.00;;;;;;5031145;28;20033;-73
2022/08/02 00:30:06;;;;;;;8.75;2.28;;;16.60;98.10;;;;;;5031024;28;20478;-73
2022/08/02 00:32:31;;;;;;;5.35;2.17;;;16.50;98.20;;;;;;5031177;28;20432;-74
2022/08/02 00:34:57;;;;;;;8.60;2.65;;;16.50;98.20;;;;;;5031521;28;20045;-74
2022/08/02 00:37:22;;;;;;;6.78;2.20;;;16.50;98.20;;;;;;5030691;28;20116;-73
2022/08/02 00:39:48;;;;;;;9.05;3.03;;;16.40;98.20;;;;;;5028582;28;20034;-74
2022/08/02 00:42:14;;;;;;;6.95;2.15;;;16.40;98.30;;;;;;5030774;28;20057;-75
2022/08/02 00:44:40;;;;;;;7.40;1.88;;;16.40;98.40;;;;;;5030796;28;20053;-73
2022/08/02 00:47:06;;;;;;;6.57;2.20;;;16.30;98.30;;;;;;5030629;28;20411;-73
2022/08/02 00:49:31;;;;;;;6.68;1.75;;;16.30;98.40;;;;;;5031007;28;20026;-75
2022/08/02 00:51:57;;;;;;;8.38;2.60;;;16.30;98.50;;;;;;5030507;28;20041;-73
2022/08/02 00:54:23;;;;;;;9.25;2.28;;;16.30;98.40;;;;;;5030566;28;20029;-74
2022/08/02 00:56:48;;;;;;;7.03;2.67;;;16.20;98.50;;;;;;5030598;28;20352;-74
2022/08/02 00:59:14;;;;;;;9.07;2.53;;;16.20;98.80;;;;;;5030492;28;20221;-73
2022/08/02 01:01:40;;;;;;;9.80;2.08;;;16.20;98.60;;;;;;5031170;28;20033;-75
2022/08/02 01:04:08;;;;;;;7.20;2.03;;;16.10;98.60;;;;;;5030832;28;20029;-74
2022/08/02 01:06:35;;;;;;;8.60;2.50;;;16.10;98.70;;;;;;5030555;28;20022;-74
2022/08/02 01:09:02;;;;;;;9.45;2.05;;;16.00;98.70;;;;;;5030570;28;20033;-74
2022/08/02 01:11:28;;;;;;;9.10;2.20;;;16.00;98.80;;;;;;5030289;28;20647;-74
2022/08/02 01:14:08;;;;;;;5.60;2.58;;;16.00;99.00;;;;;;5030802;28;20447;-74
2022/08/02 01:16:44;;;;;;;4.43;2.00;;;16.00;98.80;;;;;;5030426;28;20160;-75
2022/08/02 01:19:53;;;;;;;4.93;2.00;;;16.00;98.90;;;;;;5030345;28;20128;-73
2022/08/02 01:22:37;;;;;;;10.23;2.58;;;16.00;99.00;;;;;;5029625;28;20124;-75
2022/08/02 01:25:18;;;;;;;10.43;2.45;;;16.00;98.90;;;;;;5030304;28;20033;-75
2022/08/02 01:28:02;;;;;;;4.13;1.88;;;16.00;98.80;;;;;;5030306;28;20026;-75
2022/08/02 01:30:30;;;;;;;6.47;2.25;;;15.90;99.00;;;;;;5030211;28;20113;-74
2022/08/02 01:33:00;;;;;;;6.40;2.50;;;15.90;99.10;;;;;;5030028;28;20463;-76
2022/08/02 01:35:55;;;;;;;6.70;2.13;;;15.80;99.10;;;;;;5025337;28;20419;-75
2022/08/02 01:38:28;;;;;;;12.43;2.50;;;15.80;99.00;;;;;;5010501;28;20136;-75
2022/08/02 01:40:57;;;;;;;9.43;2.38;;;15.80;99.10;;;;;;5009617;28;20104;-76
2022/08/02 01:43:27;;;;;;;8.25;2.38;;;15.70;99.30;;;;;;5010567;28;20134;-75
2022/08/02 01:45:54;;;;;;;6.35;1.75;;;15.70;99.40;;;;;;5010369;28;20178;-75
2022/08/02 01:48:22;;;;;;;11.68;2.40;;;15.70;99.40;;;;;;5010301;28;20124;-75
2022/08/02 01:50:48;;;;;;;8.13;2.42;;;15.80;99.60;;;;;;5010985;28;20309;-75
2022/08/02 01:53:17;;;;;;;10.88;2.38;;;15.80;99.50;;;;;;5014154;28;20106;-75
2022/08/02 01:55:46;;;;;;;11.50;3.85;;;15.80;99.70;;;;;;5014279;28;20504;-75
2022/08/02 01:58:16;;;;;;;8.98;2.38;;;15.80;99.50;;;;;;5012754;28;20034;-75
2022/08/02 02:00:42;;;;;;;10.23;2.38;;;15.70;99.70;;;;;;5014032;28;20034;-75
2022/08/02 02:03:13;;;;;;;8.90;2.60;;;15.70;99.50;;;;;;5014041;28;20038;-74
2022/08/02 02:05:40;;;;;;;6.80;2.42;;;15.70;99.50;;;;;;5013132;28;20036;-75
2022/08/02 02:08:08;;;;;;;7.77;2.67;;;15.70;99.60;;;;;;5014054;28;20359;-74
2022/08/02 02:10:37;;;;;;;6.85;2.30;;;15.60;99.60;;;;;;5014483;28;20354;-75
2022/08/02 02:13:08;;;;;;;6.28;2.20;;;15.70;99.70;;;;;;5013916;28;20472;-75
2022/08/02 02:15:40;;;;;;;9.77;2.83;;;15.60;99.90;;;;;;5014003;28;20030;-75
2022/08/02 02:18:07;;;;;;;9.18;2.65;;;15.60;99.80;;;;;;5013871;28;20117;-75
2022/08/02 02:20:34;;;;;;;9.50;2.08;;;15.60;99.90;;;;;;5013716;28;20030;-75
2022/08/02 02:22:59;;;;;;;6.95;2.30;;;15.60;99.70;;;;;;5014128;28;20032;-75
2022/08/02 02:25:25;;;;;;;7.95;2.55;;;15.60;99.70;;;;;;5013905;28;20029;-74
2022/08/02 02:27:57;;;;;;;7.60;2.17;;;15.60;99.80;;;;;;5013681;28;20125;-74
2022/08/02 02:30:26;;;;;;;11.18;2.83;;;15.50;99.80;;;;;;5013425;28;20499;-75
2022/08/02 02:32:56;;;;;;;7.50;2.33;;;15.50;99.70;;;;;;5012466;28;20124;-75
2022/08/02 02:35:22;;;;;;;7.80;2.40;;;15.60;99.70;;;;;;5013423;28;20479;-75
2022/08/02 02:37:50;;;;;;;8.35;2.50;;;15.60;99.70;;;;;;5013811;28;20025;-75
2022/08/02 02:40:16;;;;;;;6.78;2.90;;;15.50;99.80;;;;;;5012520;28;20080;-75
2022/08/02 02:42:43;;;;;;;8.13;2.45;;;15.50;99.70;;;;;;5013344;28;20061;-75
2022/08/02 02:45:11;;;;;;;6.90;2.30;;;15.50;99.90;;;;;;5013488;28;20018;-75
2022/08/02 02:47:38;;;;;;;7.95;2.28;;;15.40;99.90;;;;;;5013361;28;20044;-74
2022/08/02 02:50:05;;;;;;;5.30;2.10;;;15.40;99.90;;;;;;5012984;28;20040;-73
2022/08/02 02:52:31;;;;;;;10.05;2.25;;;15.40;99.90;;;;;;5014022;28;20044;-74
2022/08/02 02:54:57;;;;;;;6.18;2.72;;;15.30;99.90;;;;;;5011988;28;20045;-74
2022/08/02 02:57:23;;;;;;;5.97;2.45;;;15.40;99.90;;;;;;5012825;28;20049;-74
2022/08/02 02:59:50;;;;;;;7.28;2.63;;;15.30;99.90;;;;;;5012816;28;20121;-74
2022/08/02 03:02:17;;;;;;;6.30;2.45;;;15.30;99.90;;;;;;5012302;28;20068;-75
2022/08/02 03:04:44;;;;;;;5.83;2.57;;;15.30;99.90;;;;;;5012845;28;20152;-76
2022/08/02 03:07:10;;;;;;;5.50;2.08;;;15.30;99.90;;;;;;5012784;28;20117;-74
2022/08/02 03:09:37;;;;;;;5.35;2.45;;;15.20;99.90;;;;;;5012668;28;20129;-75
2022/08/02 03:12:03;;;;;;;7.00;2.38;;;15.10;99.90;;;;;;5012761;28;20518;-74
2022/08/02 03:14:29;;;;;;;4.82;2.50;;;15.10;99.90;;;;;;5012517;28;20034;-75
2022/08/02 03:16:55;;;;;;;6.07;2.97;;;15.10;99.90;;;;;;5013208;28;20392;-75
2022/08/02 03:19:22;;;;;;;5.15;2.30;;;15.10;99.90;;;;;;5012344;28;20030;-76
2022/08/02 03:21:49;;;;;;;5.97;1.83;;;15.00;99.90;;;;;;5012703;28;20451;-76
2022/08/02 03:24:15;;;;;;;7.97;2.40;;;15.00;99.90;;;;;;5012721;28;20076;-75
2022/08/02 03:26:41;;;;;;;7.50;2.50;;;15.00;99.90;;;;;;5012618;28;20026;-75
2022/08/02 03:29:07;;;;;;;11.18;2.70;;;15.00;99.90;;;;;;5011272;28;20034;-75
2022/08/02 03:31:34;;;;;;;7.32;2.30;;;15.00;99.90;;;;;;5012005;28;20117;-75
2022/08/02 03:34:01;;;;;;;5.72;2.28;;;14.90;99.90;;;;;;5012323;28;20034;-74
2022/08/02 03:36:30;;;;;;;4.95;1.95;;;14.90;99.90;;;;;;5012117;28;20034;-74
2022/08/02 03:38:58;;;;;;;4.20;2.20;;;14.90;99.90;;;;;;5010888;28;20153;-75
2022/08/02 03:41:24;;;;;;;5.07;1.95;;;14.90;99.90;;;;;;5011961;28;20030;-75
2022/08/02 03:43:51;;;;;;;7.75;2.45;;;14.90;99.90;;;;;;5012766;28;20514;-75
2022/08/02 03:46:21;;;;;;;5.45;2.40;;;15.00;99.90;;;;;;5012258;28;20026;-75
2022/08/02 03:48:50;;;;;;;5.28;2.38;;;14.90;99.90;;;;;;5012032;28;20192;-75
2022/08/02 03:51:16;;;;;;;6.78;2.58;;;15.00;99.90;;;;;;5012097;28;20021;-75
2022/08/02 03:53:42;;;;;;;7.10;3.13;;;15.00;99.90;;;;;;5012101;28;20018;-74
2022/08/02 03:56:09;;;;;;;9.48;2.88;;;15.00;99.90;;;;;;5011643;28;20266;-74
2022/08/02 03:58:34;;;;;;;4.43;2.38;;;15.00;99.90;;;;;;5012188;28;20022;-75
2022/08/02 04:01:00;;;;;;;6.35;2.30;;;15.00;99.90;;;;;;5011709;28;20041;-74
2022/08/02 04:03:26;;;;;;;8.35;2.65;;;15.00;99.90;;;;;;5010576;28;20069;-75
2022/08/02 04:05:53;;;;;;;8.30;2.63;;;15.00;99.90;;;;;;5011691;28;20026;-76
2022/08/02 04:08:19;;;;;;;9.32;2.70;;;15.00;99.90;;;;;;5011568;28;20037;-76
2022/08/02 04:13:34;;;;;;;6.97;2.53;;;15.00;99.90;;;;;;5011594;28;20100;-76
2022/08/02 04:16:13;;;;;;;5.18;2.60;;;15.00;99.90;;;;;;5011519;28;20351;-75
2022/08/02 04:18:51;;;;;;;6.50;3.10;;;15.10;99.90;;;;;;5010305;28;20141;-76
2022/08/02 04:21:18;;;;;;;;;;;15.10;99.90;;;;;;5011937;28;20443;-75
2022/08/02 04:23:47;;;;;;;7.47;2.72;;;15.10;99.90;;;;;;5011435;28;20298;-76
2022/08/02 04:26:13;;;;;;;12.02;2.65;;;15.00;99.90;;;;;;5011401;28;20064;-77
2022/08/02 04:28:41;;;;;;;13.68;3.28;;;15.00;99.90;;;;;;5011715;28;20021;-76
2022/08/02 04:31:07;;;;;;;11.80;2.83;;;15.00;99.90;;;;;;5011189;28;20037;-76
2022/08/02 04:33:34;;;;;;;6.82;2.83;;;15.00;99.90;;;;;;5011161;28;20045;-77
2022/08/02 04:36:00;;;;;;;7.50;2.13;;;15.10;99.90;;;;;;5011247;28;20033;-76
2022/08/02 04:38:25;;;;;;;3.72;2.20;;;15.10;99.90;;;;;;5011119;28;20053;-76
2022/08/02 04:40:54;;;;;;;14.23;2.70;;;15.00;99.90;;;;;;5011807;28;20356;-76
2022/08/02 04:43:21;;;;;;;6.88;2.88;;;15.00;99.90;;;;;;5011137;28;20038;-74
2022/08/02 04:45:50;;;;;;;9.02;3.25;;;15.00;99.90;;;;;;5011055;28;20372;-75
2022/08/02 04:48:16;;;;;;;5.85;2.80;;;14.90;99.90;;;;;;5010820;28;20100;-75
2022/08/02 04:50:41;;;;;;;11.77;3.50;;;14.90;99.90;;;;;;5010906;28;20356;-75
2022/08/02 04:53:07;;;;;;;10.80;3.30;;;15.00;99.90;;;;;;5010936;28;20022;-74
2022/08/02 04:55:33;;;;;;;11.38;2.83;;;15.10;99.90;;;;;;5011440;28;20029;-74
2022/08/02 04:57:58;;;;;;;7.35;2.90;;;15.10;99.90;;;;;;5010907;28;20033;-75
2022/08/02 05:00:26;;;;;;;7.70;3.00;;;15.10;99.90;;;;;;5010860;28;20030;-76
2022/08/02 05:02:53;;;;;;;10.45;3.20;;;15.20;99.90;;;;;;5010724;28;20030;-76
2022/08/02 05:05:18;;;;;;;13.35;3.88;;;15.10;99.90;;;;;;5010708;28;20404;-76
2022/08/02 05:07:44;;;;;;;13.73;3.45;;;15.20;99.90;;;;;;5011484;28;20025;-75
2022/08/02 05:10:10;;;;;;;14.35;3.42;;;15.20;99.90;;;;;;5010728;28;20030;-75
2022/08/02 05:12:39;;;;;;;9.93;3.53;;;15.20;99.90;;;;;;5010762;28;20034;-77
2022/08/02 05:15:06;;;;;;;11.45;3.03;;;15.30;99.90;;;;;;5009641;28;20038;-76
2022/08/02 05:17:31;;;;;;;12.38;3.17;;;15.30;99.90;;;;;;5009755;28;20034;-80
2022/08/02 05:19:57;;;;;;;16.17;3.97;;;15.40;99.90;;;;;;5011564;28;20463;-78
2022/08/02 05:22:23;;;;;;;15.23;3.58;;;15.50;99.90;;;;;;5011104;28;20487;-80
2022/08/02 05:24:48;;;;;;;11.35;2.80;;;15.50;99.90;;;;;;5011473;28;20038;-81
2022/08/02 05:27:14;;;;;;;9.50;2.70;;;15.60;99.90;;;;;;5016674;28;20034;-83
2022/08/02 05:29:39;;;;;;;7.50;3.00;;;15.70;99.90;;;;;;5018199;28;20030;-83
2022/08/02 05:32:05;;;;;;;11.65;3.25;;;15.70;99.90;;;;;;5017545;28;20030;-81
2022/08/02 05:34:31;;;;;;;8.40;3.08;;;15.70;99.90;;;;;;5018526;28;20026;-85
2022/08/02 05:36:57;;;;;;;9.95;3.20;;;15.80;99.90;;;;;;5018016;28;20065;-80
2022/08/02 05:39:22;;;;;;;47.40;24.92;;;15.80;99.90;;;;;;5017335;28;20124;-77
2022/08/02 05:41:48;;;;;;;49.47;28.67;;;15.80;99.90;;;;;;5017520;28;20092;-77
2022/08/02 05:44:14;;;;;;;46.63;19.95;;;15.90;99.90;;;;;;5017247;28;20470;-87
2022/08/02 05:46:39;;;;;;;34.15;16.17;;;16.00;99.90;;;;;;5017701;28;20483;-75
2022/08/02 05:49:05;;;;;;;181.32;90.70;;;16.00;99.90;;;;;;5017444;28;20018;-80
2022/08/02 05:51:41;;;;;;;149.82;69.18;;;16.10;99.90;;;;;;5017265;28;20054;-79
2022/08/02 05:54:17;;;;;;;232.50;123.78;;;16.10;99.90;;;;;;5016885;28;20026;-73
2022/08/02 05:56:54;;;;;;;122.60;65.65;;;16.20;99.90;;;;;;5016584;28;20080;-72
2022/08/02 05:59:31;;;;;;;31.92;13.77;;;16.30;99.90;;;;;;5015809;28;20084;-77
2022/08/02 06:02:03;;;;;;;54.40;27.02;;;16.30;99.90;;;;;;5016409;28;20461;-80
2022/08/02 06:05:06;;;;;;;92.22;45.17;;;16.40;99.90;;;;;;5016167;28;20072;-78
2022/08/02 06:07:35;;;;;;;55.22;26.05;;;16.50;99.90;;;;;;5016518;28;20567;-78
2022/08/02 06:10:04;;;;;;;12.90;5.45;;;16.50;99.90;;;;;;5016840;28;20103;-80
2022/08/02 06:12:31;;;;;;;12.55;3.88;;;16.50;99.90;;;;;;5017340;28;20034;-78
2022/08/02 06:14:58;;;;;;;11.82;3.55;;;16.60;99.90;;;;;;5017230;28;20488;-75
2022/08/02 06:17:24;;;;;;;13.63;4.07;;;16.70;99.90;;;;;;5016948;28;20030;-75
2022/08/02 06:19:55;;;;;;;25.83;10.93;;;16.70;99.90;;;;;;5017077;28;20113;-77
2022/08/02 06:22:25;;;;;;;40.15;17.05;;;16.80;99.80;;;;;;5016749;28;20050;-79
2022/08/02 06:24:52;;;;;;;23.42;9.82;;;16.90;99.80;;;;;;5016588;28;20080;-77
2022/08/02 06:27:20;;;;;;;11.52;4.00;;;16.90;99.60;;;;;;5016740;28;20431;-76
2022/08/02 06:29:48;;;;;;;21.77;5.22;;;17.00;99.60;;;;;;5016467;28;20030;-77
2022/08/02 06:32:18;;;;;;;7.53;2.50;;;17.10;99.60;;;;;;5016546;28;20034;-77
2022/08/02 06:34:45;;;;;;;15.05;5.53;;;17.10;99.40;;;;;;5017318;28;20018;-77
2022/08/02 06:37:33;;;;;;;13.13;5.18;;;17.10;99.50;;;;;;5016609;28;20034;-80
2022/08/02 06:40:15;;;;;;;10.88;3.17;;;17.20;99.00;;;;;;5012701;28;20049;-77
2022/08/02 06:43:01;;;;;;;13.07;3.28;;;17.20;99.00;;;;;;5013548;28;20034;-78
2022/08/02 06:45:27;;;;;;;13.60;4.10;;;17.30;98.90;;;;;;5013793;28;20030;-79
2022/08/02 06:47:53;;;;;;;18.67;4.32;;;17.50;99.00;;;;;;5013386;28;20498;-75
2022/08/02 06:50:19;;;;;;;10.93;2.97;;;17.60;98.80;;;;;;5013329;28;20232;-79
2022/08/02 06:52:45;;;;;;;13.75;2.67;;;17.80;98.70;;;;;;5013918;28;20025;-81
2022/08/02 06:55:11;;;;;;;9.07;2.63;;;17.90;98.50;;;;;;5013354;28;20037;-79
2022/08/02 06:57:36;;;;;;;16.17;2.80;;;17.90;98.40;;;;;;5011940;28;20045;-77
2022/08/02 07:00:07;;;;;;;15.55;2.78;;;18.10;98.50;;;;;;5012153;28;20045;-77
2022/08/02 07:02:34;;;;;;;14.50;2.60;;;18.10;98.30;;;;;;5013532;28;20034;-80
2022/08/02 07:05:00;;;;;;;10.13;2.45;;;18.10;98.10;;;;;;5013937;28;20448;-79
2022/08/02 07:07:26;;;;;;;9.10;2.10;;;18.20;97.80;;;;;;5013416;28;20044;-75
2022/08/02 07:09:52;;;;;;;10.50;2.47;;;18.30;97.90;;;;;;5013407;28;20027;-83
2022/08/02 07:12:18;;;;;;;27.98;12.82;;;18.30;97.80;;;;;;5012485;28;20045;-77
2022/08/02 07:14:47;;;;;;;14.68;3.25;;;18.40;98.20;;;;;;5017443;28;20053;-85
2022/08/02 07:17:13;;;;;;;8.88;2.55;;;18.50;97.90;;;;;;5020552;28;20041;-91
2022/08/02 07:19:38;;;;;;;8.57;2.25;;;18.60;97.90;;;;;;5017394;28;20029;-80
2022/08/02 07:22:04;;;;;;;15.48;3.30;;;18.60;97.80;;;;;;5013780;28;20476;-81
2022/08/02 07:24:30;;;;;;;10.65;2.67;;;18.70;97.60;;;;;;5015653;28;20053;-80
2022/08/02 07:26:57;;;;;;;8.15;2.40;;;18.80;97.90;;;;;;5017462;28;20036;-82
2022/08/02 07:29:22;;;;;;;11.30;2.72;;;18.90;97.80;;;;;;5015299;28;20030;-82
2022/08/02 07:31:48;;;;;;;13.68;3.30;;;18.90;97.80;;;;;;5015833;28;20041;-82
2022/08/02 07:34:14;;;;;;;9.40;2.75;;;19.00;97.80;;;;;;5015637;28;20084;-85
2022/08/02 07:36:40;;;;;;;8.65;3.05;;;19.10;97.90;;;;;;5013164;28;20080;-87
2022/08/02 07:39:05;;;;;;;18.88;3.00;;;19.20;97.60;;;;;;5014246;28;20042;-81
2022/08/02 07:41:31;;;;;;;9.43;2.90;;;19.30;97.80;;;;;;5012705;28;20382;-75
2022/08/02 07:43:57;;;;;;;10.68;2.60;;;19.40;97.70;;;;;;5014016;28;20040;-80
2022/08/02 07:46:22;;;;;;;13.05;2.92;;;19.50;97.70;;;;;;5012333;28;20113;-79
2022/08/02 07:48:48;;;;;;;13.95;3.70;;;19.60;97.60;;;;;;5011647;28;20034;-79
2022/08/02 07:51:14;;;;;;;14.93;3.38;;;19.70;97.60;;;;;;5012184;28;20535;-76
2022/08/02 07:53:40;;;;;;;12.93;3.88;;;19.70;97.30;;;;;;5012139;28;20114;-77
2022/08/02 07:56:06;;;;;;;9.73;3.10;;;19.90;97.60;;;;;;5012774;28;20042;-76
2022/08/02 07:58:31;;;;;;;8.38;2.88;;;20.00;97.50;;;;;;5012656;28;20507;-76
2022/08/02 08:00:57;;;;;;;9.35;2.95;;;20.10;97.60;;;;;;5011941;28;20069;-77
2022/08/02 08:03:23;;;;;;;10.30;2.60;;;20.20;97.40;;;;;;5012199;28;20371;-79
2022/08/02 08:05:48;;;;;;;14.90;2.72;;;20.40;97.20;;;;;;5012960;28;20025;-79
2022/08/02 08:08:14;;;;;;;10.65;4.72;;;20.60;97.10;;;;;;5012396;28;20040;-81
2022/08/02 08:10:40;;;;;;;93.22;55.45;;;20.70;97.30;;;;;;5011590;28;20113;-80
2022/08/02 08:13:06;;;;;;;78.47;43.67;;;20.80;97.00;;;;;;5011322;28;20120;-83
2022/08/02 08:15:31;;;;;;;91.68;48.40;;;21.00;96.90;;;;;;5011910;28;20117;-76
2022/08/02 08:17:57;;;;;;;31.23;18.15;;;21.20;97.20;;;;;;5011725;28;20037;-77
2022/08/02 08:20:23;;;;;;;67.20;35.00;;;21.40;96.80;;;;;;5011760;28;20137;-83
2022/08/02 08:22:49;;;;;;;13.13;3.63;;;21.70;96.70;;;;;;5014062;28;20026;-84
2022/08/02 08:25:15;;;;;;;8.65;3.03;;;22.10;96.00;;;;;;5015957;28;20081;-76
2022/08/02 08:27:48;;;;;;;13.68;4.82;;;22.40;95.50;;;;;;5007130;28;20117;-77
2022/08/02 08:30:15;;;;;;;3.42;2.47;;;23.30;95.90;;;;;;5021685;28;20468;-76
2022/08/02 08:32:40;;;;;;;8.02;2.70;;;24.20;94.00;;;;;;5031587;28;20029;-75
2022/08/02 08:35:07;;;;;;;6.18;1.98;;;25.30;93.00;;;;;;5031323;28;20021;-75
2022/08/02 08:37:34;;;;;;;6.85;2.53;;;26.50;91.90;;;;;;5030590;28;20095;-79
2022/08/02 08:40:00;;;;;;;25.02;3.65;;;27.40;91.40;;;;;;5031210;28;20056;-78
2022/08/02 08:42:26;;;;;;;8.77;2.67;;;28.30;88.40;;;;;;5031179;28;20034;-77
2022/08/02 08:44:55;;;;;;;8.02;2.20;;;29.30;85.90;;;;;;5031278;28;20033;-79
2022/08/02 08:47:23;;;;;;;7.72;2.28;;;29.80;79.80;;;;;;5031187;28;20045;-79
2022/08/02 08:49:53;;;;;;;6.78;2.50;;;30.50;76.10;;;;;;5031747;28;20013;-79
2022/08/02 08:52:24;;;;;;;9.55;2.05;;;30.90;73.70;;;;;;5031212;28;20025;-78
2022/08/02 08:54:50;;;;;;;8.18;2.65;;;31.20;76.10;;;;;;5031438;28;20064;-77
2022/08/02 08:57:19;;;;;;;9.30;2.45;;;31.70;72.50;;;;;;5030659;28;20046;-77
2022/08/02 08:59:45;;;;;;;9.80;2.03;;;31.50;68.60;;;;;;5029945;28;20482;-78
2022/08/02 09:02:11;;;;;;;3.47;1.63;;;31.60;67.40;;;;;;5030130;28;20047;-78
2022/08/02 09:04:37;;;;;;;5.75;1.88;;;31.60;71.40;;;;;;5031740;28;20025;-79
2022/08/02 09:07:03;;;;;;;8.13;2.35;;;31.50;67.90;;;;;;5030932;28;20117;-78
2022/08/02 09:09:29;;;;;;;7.05;2.00;;;30.70;68.80;;;;;;5030682;28;20145;-76
2022/08/02 09:12:11;;;;;;;6.45;2.10;;;30.90;70.60;;;;;;5030530;28;20434;-76
2022/08/02 09:14:37;;;;;;;6.38;1.83;;;30.40;67.50;;;;;;5030759;28;20107;-75
2022/08/02 09:17:11;;;;;;;6.53;1.67;;;30.40;69.90;;;;;;5029338;28;20029;-79
2022/08/02 09:19:37;;;;;;;4.25;1.60;;;30.50;65.00;;;;;;5031366;28;20358;-74
2022/08/02 09:22:09;;;;;;;6.40;2.03;;;30.70;63.20;;;;;;5029992;28;20033;-76
2022/08/02 09:24:48;;;;;;;5.35;2.50;;;30.70;63.70;;;;;;5029531;28;20099;-79
2022/08/02 09:27:17;;;;;;;8.32;2.22;;;29.90;62.40;;;;;;5030455;28;20045;-82
2022/08/02 09:29:48;;;;;;;6.72;1.90;;;28.80;63.80;;;;;;5031060;28;20083;-80
2022/08/02 09:32:15;;;;;;;8.00;2.15;;;28.80;66.30;;;;;;5031042;28;20022;-78
2022/08/02 09:34:49;;;;;;;7.20;1.63;;;29.70;68.20;;;;;;5030169;28;20338;-79
2022/08/02 09:37:26;;;;;;;8.32;2.25;;;29.90;67.50;;;;;;5030682;28;20472;-73
2022/08/02 09:39:52;;;;;;;344.67;253.02;;;30.70;65.60;;;;;;5030304;28;20051;-73
2022/08/02 09:42:18;;;;;;;58.50;38.00;;;31.80;64.40;;;;;;5029027;28;20428;-82
2022/08/02 09:45:00;;;;;;;7.18;3.10;;;32.60;62.90;;;;;;5030491;28;20121;-77
2022/08/02 09:47:27;;;;;;;7.72;2.10;;;33.10;60.30;;;;;;5030491;28;20029;-84
2022/08/02 09:49:55;;;;;;;2.72;1.52;;;33.40;58.90;;;;;;5029808;28;20061;-81
2022/08/02 09:52:30;;;;;;;;;;;33.20;58.30;;;;;;5031404;28;20048;-83
2022/08/02 09:55:04;;;;;;;8.32;2.13;;;33.40;58.50;;;;;;5030575;28;19963;-82
2022/08/02 09:57:32;;;;;;;3.33;1.63;;;32.80;56.90;;;;;;5030296;28;20379;-81
2022/08/02 09:59:58;;;;;;;5.15;1.65;;;32.50;57.40;;;;;;5030406;28;20088;-82
2022/08/02 10:02:24;;;;;;;5.28;1.75;;;32.90;57.70;;;;;;5030219;28;20033;-82
2022/08/02 10:04:50;;;;;;;7.78;1.55;;;33.20;55.90;;;;;;5030948;28;20280;-82
2022/08/02 10:07:17;;;;;;;14.43;1.90;;;33.00;56.10;;;;;;5030311;28;20141;-81
2022/08/02 10:09:44;;;;;;;3.55;1.70;;;32.20;56.70;;;;;;5030818;28;20038;-81
2022/08/02 10:12:11;;;;;;;6.40;1.67;;;31.90;55.40;;;;;;5030910;28;20037;-80
2022/08/02 10:14:37;;;;;;;4.38;2.05;;;32.10;57.50;;;;;;5034254;28;20026;-82
2022/08/02 10:17:06;;;;;;;5.13;2.25;;;31.60;57.00;;;;;;5033715;28;20113;-80
2022/08/02 10:19:33;;;;;;;7.97;1.95;;;30.20;57.40;;;;;;5034143;28;20116;-79
2022/08/02 10:22:08;;;;;;;3.38;1.67;;;30.30;59.20;;;;;;5034073;28;20044;-81
2022/08/02 10:24:38;;;;;;;7.18;2.08;;;30.50;58.40;;;;;;5033707;28;20033;-80
2022/08/02 10:27:06;;;;;;;4.53;1.90;;;29.80;59.10;;;;;;5032772;28;20116;-79
2022/08/02 10:29:36;;;;;;;4.57;2.17;;;29.80;59.80;;;;;;5034075;28;20083;-81
2022/08/02 10:32:06;;;;;;;11.50;1.85;;;29.50;59.40;;;;;;5033691;28;20443;-79
2022/08/02 10:34:42;;;;;;;3.55;1.58;;;29.60;58.70;;;;;;5034434;28;20031;-80
2022/08/02 10:37:10;;;;;;;3.35;1.45;;;28.80;57.50;;;;;;5032599;28;20340;-80
2022/08/02 10:39:43;;;;;;;2.83;1.52;;;28.80;59.80;;;;;;5033305;28;20048;-81
2022/08/02 10:42:09;;;;;;;3.88;1.77;;;28.90;58.90;;;;;;5032316;28;20057;-81
2022/08/02 10:44:36;;;;;;;3.67;1.60;;;28.90;59.10;;;;;;5032176;28;20025;-79
2022/08/02 10:47:16;;;;;;;7.63;1.73;;;28.70;58.80;;;;;;5033543;28;20076;-79
2022/08/02 10:49:56;;;;;;;2.15;1.30;;;28.60;58.50;;;;;;5033843;28;20017;-80
2022/08/02 10:52:23;;;;;;;3.90;1.50;;;28.40;58.10;;;;;;5032176;28;20032;-80
2022/08/02 10:54:55;;;;;;;4.05;2.28;;;28.00;58.10;;;;;;5032079;28;20147;-79
2022/08/02 10:57:25;;;;;;;6.35;2.28;;;28.00;59.50;;;;;;5033410;28;20041;-80
2022/08/02 11:00:15;;;;;;;5.43;1.95;;;28.20;59.80;;;;;;5033544;28;20047;-80
2022/08/02 11:02:42;;;;;;;5.22;2.05;;;28.40;60.70;;;;;;5029321;28;20036;-79
2022/08/02 11:05:18;;;;;;;5.97;2.00;;;28.30;60.40;;;;;;5032358;28;20091;-79
2022/08/02 11:07:45;;;;;;;5.68;1.73;;;28.40;60.70;;;;;;5032927;28;20037;-79
2022/08/02 11:10:38;;;;;;;5.70;2.22;;;28.40;60.60;;;;;;5033152;28;20060;-81
2022/08/02 11:13:08;;;;;;;6.55;2.10;;;28.30;61.30;;;;;;5031538;28;20367;-79
2022/08/02 11:16:00;;;;;;;7.95;2.00;;;28.40;60.90;;;;;;5032183;28;20107;-81
2022/08/02 11:18:50;;;;;;;6.07;1.73;;;28.40;60.80;;;;;;5031927;28;20030;-80
2022/08/02 11:21:23;;;;;;;5.43;1.88;;;28.30;59.60;;;;;;5032898;28;20444;-80
2022/08/02 11:23:50;;;;;;;3.80;1.55;;;28.20;60.00;;;;;;5031813;28;20061;-81
2022/08/02 11:26:31;;;;;;;3.95;1.55;;;27.90;60.30;;;;;;5032485;28;20025;-79
2022/08/02 11:29:02;;;;;;;3.30;1.42;;;27.90;61.40;;;;;;5032146;28;20049;-82
2022/08/02 11:31:36;;;;;;;3.83;1.67;;;27.90;59.30;;;;;;5032582;28;20037;-85
2022/08/02 11:34:04;;;;;;;3.88;1.60;;;27.90;59.90;;;;;;5032385;28;20411;-79
2022/08/02 11:36:30;;;;;;;7.75;1.60;;;28.00;60.40;;;;;;5031686;28;20033;-80
2022/08/02 11:39:16;;;;;;;4.55;1.83;;;28.20;60.10;;;;;;5033741;28;20431;-85
2022/08/02 11:41:47;;;;;;;3.65;1.70;;;28.00;59.80;;;;;;5034955;28;20385;-81
2022/08/02 11:44:12;;;;;;;3.65;1.92;;;27.80;59.70;;;;;;5032505;28;20029;-81
2022/08/02 11:46:39;;;;;;;4.80;1.67;;;27.80;60.60;;;;;;5032806;28;20088;-78
2022/08/02 11:49:15;;;;;;;75.38;47.10;;;27.90;60.50;;;;;;5025690;28;20026;-79
2022/08/02 11:52:04;;;;;;;41.90;21.13;;;28.10;60.80;;;;;;5032290;28;20034;-81
2022/08/02 11:54:41;;;;;;;4.45;1.80;;;28.10;60.10;;;;;;5032708;28;20109;-75
2022/08/02 11:57:14;;;;;;;3.58;1.35;;;27.90;59.10;;;;;;5032044;28;20041;-77
2022/08/02 11:59:42;;;;;;;2.78;1.42;;;28.00;59.10;;;;;;5031838;28;20034;-75
2022/08/02 12:02:09;;;;;;;3.10;1.60;;;27.70;58.90;;;;;;5031804;28;20034;-77
2022/08/02 12:04:35;;;;;;;3.03;1.27;;;27.80;59.20;;;;;;5032210;28;20021;-77
2022/08/02 12:07:02;;;;;;;4.43;1.38;;;27.70;59.10;;;;;;5030742;28;20640;-76
2022/08/02 12:09:31;;;;;;;2.22;1.20;;;27.70;60.00;;;;;;5032123;28;20100;-76
2022/08/02 12:11:57;;;;;;;4.13;1.40;;;27.90;60.40;;;;;;5031823;28;20124;-77
2022/08/02 12:14:25;;;;;;;3.55;1.35;;;27.90;60.10;;;;;;5031691;28;20044;-75
2022/08/02 12:19:36;;;;;;;3.50;1.90;;;27.90;60.60;;;;;;5031888;28;20136;-87
2022/08/02 12:22:10;;;;;;;6.18;1.42;;;28.00;60.80;;;;;;5030547;28;20066;-78
2022/08/02 12:24:36;;;;;;;7.88;1.50;;;28.00;60.40;;;;;;5031857;28;20033;-85
2022/08/02 12:27:02;;;;;;;6.05;4.50;;;27.70;60.50;;;;;;5032219;28;20026;-78
2022/08/02 12:29:30;;;;;;;200.73;125.80;;;27.60;60.50;;;;;;5031686;28;20040;-76
2022/08/02 12:31:56;;;;;;;;;;;27.60;61.60;;;;;;5032152;28;20060;-75
2022/08/02 12:34:23;;;;;;;8.73;5.65;;;27.50;60.80;;;;;;5031889;28;19940;-74
2022/08/02 12:37:24;;;;;;;17.48;10.65;;;27.60;61.70;;;;;;5031215;28;20053;-74
2022/08/02 12:39:50;;;;;;;25.48;14.18;;;27.50;61.40;;;;;;5027453;28;20080;-75
2022/08/02 12:42:15;;;;;;;5.75;2.50;;;27.70;62.20;;;;;;5031327;28;20037;-77
2022/08/02 12:45:00;;;;;;;5.22;2.33;;;27.70;62.00;;;;;;5031359;28;20500;-82
2022/08/02 12:47:26;;;;;;;1.63;1.30;;;27.70;62.30;;;;;;5030234;28;20325;-84
2022/08/02 12:50:13;;;;;;;3.00;1.75;;;27.80;62.10;;;;;;5031766;28;20026;-81
2022/08/02 12:52:39;;;;;;;4.10;1.60;;;27.80;62.20;;;;;;5031729;28;20025;-81
2022/08/02 12:55:19;;;;;;;2.22;1.30;;;28.00;62.50;;;;;;5031686;28;20339;-87
2022/08/02 12:58:14;;;;;;;5.45;2.72;;;28.00;62.30;;;;;;5031662;28;20041;-86